createdAt,value
2018-12-07T00:01:04.340Z,86.02
2018-12-07T00:03:33.887Z,85.94
2018-12-07T00:06:02.765Z,86.32
2018-12-07T00:08:31.520Z,86.20
2018-12-07T00:11:00.488Z,86.17
2018-12-07T00:13:29.710Z,86.25
2018-12-07T00:15:58.765Z,86.58
2018-12-07T00:18:27.531Z,86.19
2018-12-07T00:20:57.312Z,86.09
2018-12-07T00:23:26.973Z,86.16
2018-12-07T00:25:56.267Z,86.40
2018-12-07T00:28:25.008Z,86.37
2018-12-07T00:30:54.655Z,86.35
2018-12-07T00:33:23.385Z,86.50
2018-12-07T00:35:52.129Z,86.64
2018-12-07T00:38:21.280Z,86.60
2018-12-07T00:40:50.840Z,86.88
2018-12-07T00:43:19.718Z,86.92
2018-12-07T00:45:49.477Z,86.79
2018-12-07T00:48:18.209Z,86.69
2018-12-07T00:50:48.753Z,86.53
2018-12-07T00:53:17.590Z,86.92
2018-12-07T00:55:46.785Z,86.60
2018-12-07T00:58:18.222Z,86.43
2018-12-07T01:00:46.945Z,86.47
2018-12-07T01:03:16.082Z,86.50
2018-12-07T01:05:44.865Z,86.54
2018-12-07T01:08:13.566Z,86.29
2018-12-07T01:10:43.074Z,86.35
2018-12-07T01:13:11.913Z,86.42
2018-12-07T01:15:41.592Z,86.32
2018-12-07T01:18:11.614Z,86.21
2018-12-07T01:20:41.856Z,86.23
2018-12-07T01:23:12.420Z,86.23
2018-12-07T01:25:42.853Z,85.94
2018-12-07T01:28:12.568Z,85.75
2018-12-07T01:30:42.338Z,85.59
2018-12-07T01:33:11.189Z,86.02
2018-12-07T01:35:40.605Z,85.92
2018-12-07T01:38:09.498Z,86.04
2018-12-07T01:40:39.627Z,86.16
2018-12-07T01:43:08.822Z,86.21
2018-12-07T01:45:38.548Z,86.17
2018-12-07T01:48:07.250Z,86.18
2018-12-07T01:50:37.097Z,86.37
2018-12-07T01:53:05.837Z,86.13
2018-12-07T01:55:35.127Z,86.41
2018-12-07T01:58:04.032Z,86.14
2018-12-07T02:00:34.582Z,86.06
2018-12-07T02:03:04.016Z,86.37
2018-12-07T02:05:32.872Z,86.53
2018-12-07T02:08:01.699Z,86.36
2018-12-07T02:10:30.894Z,86.18
2018-12-07T02:12:59.702Z,86.40
2018-12-07T02:15:32.075Z,86.37
2018-12-07T02:18:01.017Z,86.30
2018-12-07T02:20:30.946Z,86.07
2018-12-07T02:23:00.649Z,86.07
2018-12-07T02:25:31.250Z,86.11
2018-12-07T02:28:00.785Z,86.17
2018-12-07T02:30:32.114Z,85.94
2018-12-07T02:33:00.966Z,85.78
2018-12-07T02:35:29.727Z,86.03
2018-12-07T02:37:58.502Z,86.11
2018-12-07T02:40:42.622Z,86.31
2018-12-07T02:43:12.026Z,86.54
2018-12-07T02:45:42.752Z,86.52
2018-12-07T02:48:12.387Z,86.51
2018-12-07T02:50:42.868Z,86.70
2018-12-07T02:53:12.509Z,86.55
2018-12-07T02:55:47.966Z,86.73
2018-12-07T02:58:16.724Z,87.08
2018-12-07T03:00:45.544Z,86.86
2018-12-07T03:03:15.714Z,86.89
2018-12-07T03:05:44.466Z,86.78
2018-12-07T03:08:14.242Z,86.76
2018-12-07T03:10:44.550Z,86.68
2018-12-07T03:13:14.016Z,86.56
2018-12-07T03:15:42.928Z,86.89
2018-12-07T03:18:22.671Z,86.70
2018-12-07T03:20:51.473Z,87.07
2018-12-07T03:23:20.937Z,86.78
2018-12-07T03:27:01.431Z,87.05
2018-12-07T03:29:31.990Z,86.97
2018-12-07T03:32:01.280Z,87.21
2018-12-07T03:34:30.043Z,86.82
2018-12-07T03:36:58.797Z,87.03
2018-12-07T03:39:27.525Z,87.04
2018-12-07T03:41:56.348Z,86.93
2018-12-07T03:44:25.473Z,86.63
2018-12-07T03:46:55.126Z,86.62
2018-12-07T03:49:23.875Z,86.75
2018-12-07T03:51:53.434Z,86.60
2018-12-07T03:54:23.034Z,86.42
2018-12-07T03:56:52.316Z,86.51
2018-12-07T03:59:21.070Z,86.39
2018-12-07T04:01:50.895Z,85.96
2018-12-07T04:04:20.952Z,85.92
2018-12-07T04:06:49.757Z,86.43
2018-12-07T04:09:18.741Z,85.80
2018-12-07T04:11:48.139Z,86.31
2018-12-07T04:14:16.982Z,85.81
2018-12-07T04:16:45.729Z,86.42
2018-12-07T04:19:14.455Z,86.24
2018-12-07T04:21:43.346Z,86.26
2018-12-07T04:24:12.758Z,86.02
2018-12-07T04:26:42.298Z,86.53
2018-12-07T04:29:11.415Z,86.40
2018-12-07T04:31:40.896Z,86.58
2018-12-07T04:34:10.813Z,86.34
2018-12-07T04:36:39.502Z,86.60
2018-12-07T04:39:08.429Z,86.89
2018-12-07T04:41:37.203Z,87.06
2018-12-07T04:44:06.116Z,86.95
2018-12-07T04:46:36.146Z,87.35
2018-12-07T04:49:05.016Z,87.08
2018-12-07T04:51:34.427Z,87.39
2018-12-07T04:54:03.145Z,86.78
2018-12-07T04:56:33.783Z,86.71
2018-12-07T04:59:02.652Z,86.45
2018-12-07T05:01:31.648Z,86.83
2018-12-07T05:04:01.206Z,86.64
2018-12-07T05:06:30.128Z,86.80
2018-12-07T05:09:01.528Z,86.78
2018-12-07T05:11:30.888Z,86.77
2018-12-07T05:13:59.766Z,86.95
2018-12-07T05:16:28.534Z,87.20
2018-12-07T05:18:57.399Z,87.27
2018-12-07T05:21:26.225Z,86.80
2018-12-07T05:23:55.969Z,86.94
2018-12-07T05:26:25.431Z,86.74
2018-12-07T05:28:54.226Z,86.42
2018-12-07T05:31:24.015Z,86.64
2018-12-07T05:33:52.742Z,87.07
2018-12-07T05:36:21.679Z,86.83
2018-12-07T05:38:50.533Z,86.88
2018-12-07T05:41:19.473Z,86.99
2018-12-07T05:43:57.261Z,87.21
2018-12-07T05:46:26.966Z,87.08
2018-12-07T05:48:55.922Z,87.30
2018-12-07T05:51:25.309Z,87.18
2018-12-07T05:53:54.059Z,86.93
2018-12-07T05:56:23.342Z,86.62
2018-12-07T05:58:52.124Z,86.49
2018-12-07T06:01:20.973Z,86.97
2018-12-07T06:03:50.316Z,87.02
2018-12-07T06:06:20.589Z,86.96
2018-12-07T06:08:49.362Z,86.76
2018-12-07T06:11:18.147Z,86.80
2018-12-07T06:13:46.905Z,86.78
2018-12-07T06:16:15.749Z,86.65
2018-12-07T06:18:44.721Z,86.12
2018-12-07T06:21:13.523Z,86.33
2018-12-07T06:23:43.475Z,86.28
2018-12-07T06:26:13.153Z,86.01
2018-12-07T06:28:42.617Z,86.15
2018-12-07T06:31:11.526Z,86.54
2018-12-07T06:33:40.383Z,86.48
2018-12-07T06:36:09.335Z,86.41
2018-12-07T06:38:39.423Z,86.11
2018-12-07T06:41:08.349Z,86.00
2018-12-07T06:43:37.410Z,86.17
2018-12-07T06:46:07.202Z,86.08
2018-12-07T06:48:35.942Z,86.08
2018-12-07T06:51:05.572Z,86.17
2018-12-07T06:53:34.351Z,86.28
2018-12-07T06:56:04.061Z,86.24
2018-12-07T06:58:33.008Z,86.59
2018-12-07T07:01:01.830Z,86.58
2018-12-07T07:03:31.275Z,86.74
2018-12-07T07:06:00.023Z,86.73
2018-12-07T07:08:28.746Z,86.91
2018-12-07T07:10:57.489Z,86.91
2018-12-07T07:13:26.221Z,86.87
2018-12-07T07:15:55.270Z,87.11
2018-12-07T07:18:24.007Z,87.17
2018-12-07T07:20:52.846Z,87.11
2018-12-07T07:23:22.656Z,86.75
2018-12-07T07:25:52.493Z,86.50
2018-12-07T07:28:21.261Z,86.45
2018-12-07T07:30:50.818Z,86.09
2018-12-07T07:33:19.685Z,85.89
2018-12-07T07:35:48.584Z,86.16
2018-12-07T07:38:17.432Z,85.93
2018-12-07T07:40:46.191Z,86.10
2018-12-07T07:43:15.446Z,86.02
2018-12-07T07:45:45.187Z,85.56
2018-12-07T07:48:13.963Z,85.46
2018-12-07T07:50:43.439Z,86.03
2018-12-07T07:53:12.411Z,85.74
2018-12-07T07:55:41.906Z,85.95
2018-12-07T07:58:11.048Z,86.04
2018-12-07T08:00:40.863Z,86.28
2018-12-07T08:03:10.384Z,85.75
2018-12-07T08:05:39.271Z,86.03
2018-12-07T08:08:08.011Z,85.78
2018-12-07T08:10:36.749Z,86.11
2018-12-07T08:13:05.835Z,85.98
2018-12-07T08:15:34.692Z,86.46
2018-12-07T08:18:12.270Z,86.46
2018-12-07T08:20:41.276Z,86.69
2018-12-07T08:23:14.739Z,86.33
2018-12-07T08:25:43.751Z,86.60
2018-12-07T08:28:12.615Z,86.42
2018-12-07T08:30:41.383Z,86.20
2018-12-07T08:33:11.423Z,86.12
2018-12-07T08:35:40.319Z,86.29
2018-12-07T08:38:09.300Z,86.02
2018-12-07T08:40:38.121Z,85.95
2018-12-07T08:43:07.585Z,85.43
2018-12-07T08:45:36.755Z,85.39
2018-12-07T08:48:06.667Z,85.13
2018-12-07T08:50:36.247Z,85.31
2018-12-07T08:53:05.099Z,84.98
2018-12-07T08:55:34.512Z,84.74
2018-12-07T08:58:04.810Z,84.86
2018-12-07T09:00:33.553Z,85.05
2018-12-07T09:03:02.925Z,85.09
2018-12-07T09:05:31.872Z,85.30
2018-12-07T09:08:00.921Z,85.17
2018-12-07T09:10:29.786Z,84.86
2018-12-07T09:12:58.521Z,84.82
2018-12-07T09:15:28.141Z,84.41
2018-12-07T09:17:57.253Z,84.34
2018-12-07T09:20:26.614Z,84.29
2018-12-07T09:22:57.127Z,84.04
2018-12-07T09:25:26.549Z,83.81
2018-12-07T09:27:55.267Z,83.57
2018-12-07T09:30:24.005Z,84.00
2018-12-07T09:32:52.726Z,83.62
2018-12-07T09:35:21.460Z,83.75
2018-12-07T09:37:50.303Z,83.45
2018-12-07T09:40:19.170Z,83.58
2018-12-07T09:42:47.914Z,83.25
2018-12-07T09:45:16.982Z,83.30
2018-12-07T09:47:46.500Z,83.47
2018-12-07T09:50:15.687Z,83.98
2018-12-07T09:52:45.478Z,84.18
2018-12-07T09:55:15.398Z,84.06
2018-12-07T09:57:44.558Z,84.59
2018-12-07T10:00:13.313Z,84.56
2018-12-07T10:02:42.471Z,84.48
2018-12-07T10:05:11.400Z,84.51
2018-12-07T10:07:40.212Z,84.46
2018-12-07T10:10:09.111Z,84.46
2018-12-07T10:12:37.949Z,84.12
2018-12-07T10:15:07.134Z,84.70
2018-12-07T10:17:35.872Z,84.93
2018-12-07T10:20:05.334Z,85.00
2018-12-07T10:22:34.093Z,85.02
2018-12-07T10:25:04.202Z,85.24
2018-12-07T10:27:32.922Z,85.11
2018-12-07T10:30:01.680Z,85.41
2018-12-07T10:32:30.511Z,85.39
2018-12-07T10:34:59.238Z,85.30
2018-12-07T10:37:28.057Z,85.50
2018-12-07T10:39:57.630Z,85.57
2018-12-07T10:42:27.410Z,85.63
2018-12-07T10:44:56.141Z,85.57
2018-12-07T10:47:25.448Z,85.68
2018-12-07T10:49:54.193Z,85.54
2018-12-07T10:52:23.309Z,85.71
2018-12-07T10:54:53.423Z,85.92
2018-12-07T10:57:22.653Z,85.84
2018-12-07T10:59:51.376Z,85.39
2018-12-07T11:02:26.094Z,85.39
2018-12-07T11:05:00.355Z,85.51
2018-12-07T11:08:37.181Z,85.63
2018-12-07T11:11:11.613Z,85.70
2018-12-07T11:13:45.862Z,85.46
2018-12-07T11:16:19.814Z,86.15
2018-12-07T11:20:58.547Z,85.85
2018-12-07T11:23:34.130Z,86.01
2018-12-07T11:26:09.711Z,85.77
2018-12-07T11:28:43.576Z,86.07
2018-12-07T11:31:17.618Z,85.89
2018-12-07T11:34:20.771Z,86.17
2018-12-07T11:36:49.739Z,86.43
2018-12-07T11:39:18.435Z,86.37
2018-12-07T11:41:47.145Z,86.20
2018-12-07T11:44:15.890Z,86.02
2018-12-07T11:46:46.161Z,85.81
2018-12-07T11:49:15.003Z,86.08
2018-12-07T11:51:44.530Z,86.28
2018-12-07T11:54:13.874Z,86.60
2018-12-07T11:56:43.440Z,86.38
2018-12-07T11:59:12.257Z,86.53
2018-12-07T12:01:44.684Z,86.28
2018-12-07T12:04:13.014Z,86.96
2018-12-07T12:06:41.845Z,87.09
2018-12-07T12:09:10.700Z,87.38
2018-12-07T12:11:39.424Z,88.08
2018-12-07T12:14:08.194Z,87.60
2018-12-07T12:16:37.030Z,87.82
2018-12-07T12:19:05.713Z,88.13
2018-12-07T12:21:34.619Z,88.15
2018-12-07T12:24:04.366Z,88.54
2018-12-07T12:26:33.110Z,88.71
2018-12-07T12:29:01.873Z,88.78
2018-12-07T12:31:30.641Z,88.88
2018-12-07T12:33:59.358Z,88.91
2018-12-07T12:36:29.101Z,89.16
2018-12-07T12:38:58.072Z,88.83
2018-12-07T12:41:26.819Z,89.03
2018-12-07T12:43:55.523Z,89.13
2018-12-07T12:46:25.058Z,89.10
2018-12-07T12:48:54.518Z,89.17
2018-12-07T12:51:24.155Z,88.79
2018-12-07T12:53:52.894Z,88.69
2018-12-07T12:56:22.193Z,88.50
2018-12-07T12:58:50.937Z,88.59
2018-12-07T13:01:19.679Z,88.27
2018-12-07T13:03:49.568Z,88.01
2018-12-07T13:06:18.345Z,88.00
2018-12-07T13:08:47.055Z,87.87
2018-12-07T13:11:15.906Z,87.70
2018-12-07T13:13:44.745Z,87.83
2018-12-07T13:16:13.593Z,88.07
2018-12-07T13:18:42.624Z,87.95
2018-12-07T13:21:11.449Z,88.38
2018-12-07T13:23:40.960Z,88.17
2018-12-07T13:26:09.757Z,88.57
2018-12-07T13:28:38.520Z,88.75
2018-12-07T13:31:07.390Z,88.63
2018-12-07T13:33:36.127Z,88.80
2018-12-07T13:36:05.141Z,88.93
2018-12-07T13:38:33.975Z,88.78
2018-12-07T13:41:02.740Z,88.81
2018-12-07T13:43:31.583Z,88.62
2018-12-07T13:46:01.324Z,88.77
2018-12-07T13:48:30.902Z,88.60
2018-12-07T13:51:00.413Z,88.21
2018-12-07T13:53:29.700Z,88.26
2018-12-07T13:55:59.466Z,88.23
2018-12-07T13:58:28.477Z,88.59
2018-12-07T14:00:57.270Z,88.31
2018-12-07T14:03:27.890Z,88.29
2018-12-07T14:05:56.777Z,88.14
2018-12-07T14:08:25.672Z,87.98
2018-12-07T14:10:54.623Z,87.80
2018-12-07T14:13:23.476Z,87.33
2018-12-07T14:15:52.323Z,87.28
2018-12-07T14:18:21.103Z,86.55
2018-12-07T14:20:50.059Z,87.36
2018-12-07T14:23:19.599Z,87.31
2018-12-07T14:25:48.562Z,87.06
2018-12-07T14:28:17.467Z,87.35
2018-12-07T14:30:46.351Z,87.19
2018-12-07T14:33:15.707Z,87.30
2018-12-07T14:35:45.082Z,87.20
2018-12-07T14:38:14.719Z,86.70
2018-12-07T14:40:43.758Z,86.72
2018-12-07T14:43:12.697Z,86.32
2018-12-07T14:45:42.583Z,86.27
2018-12-07T14:48:11.581Z,86.75
2018-12-07T14:50:42.867Z,87.35
2018-12-07T14:53:11.942Z,87.37
2018-12-07T14:55:42.962Z,87.59
2018-12-07T14:58:11.980Z,88.37
2018-12-07T15:00:40.977Z,88.20
2018-12-07T15:03:10.446Z,87.55
2018-12-07T15:05:41.124Z,87.69
2018-12-07T15:08:10.292Z,87.49
2018-12-07T15:10:39.471Z,88.08
2018-12-07T15:13:08.300Z,88.05
2018-12-07T15:15:37.311Z,88.54
2018-12-07T15:18:06.385Z,88.92
2018-12-07T15:20:35.436Z,88.66
2018-12-07T15:23:05.141Z,88.46
2018-12-07T15:25:34.163Z,88.71
2018-12-07T15:28:03.087Z,88.30
2018-12-07T15:30:32.210Z,87.62
2018-12-07T15:33:01.320Z,88.11
2018-12-07T15:35:30.396Z,88.47
2018-12-07T15:37:59.291Z,88.78
2018-12-07T15:40:28.095Z,89.16
2018-12-07T15:42:57.687Z,89.50
2018-12-07T15:45:26.522Z,89.69
2018-12-07T15:47:55.890Z,89.81
2018-12-07T15:53:12.028Z,90.06
2018-12-07T15:55:41.541Z,90.15
2018-12-07T15:58:10.673Z,90.24
2018-12-07T16:00:40.230Z,89.75
2018-12-07T16:03:09.788Z,89.42
2018-12-07T16:05:38.690Z,89.50
2018-12-07T16:08:07.515Z,89.54
2018-12-07T16:10:36.744Z,89.17
2018-12-07T16:13:05.566Z,89.42
2018-12-07T16:15:34.976Z,89.42
2018-12-07T16:18:03.797Z,89.35
2018-12-07T16:20:32.937Z,89.10
2018-12-07T16:23:02.493Z,89.88
2018-12-07T16:25:31.600Z,89.79
2018-12-07T16:28:00.755Z,89.20
2018-12-07T16:30:29.634Z,88.92
2018-12-07T16:32:59.944Z,89.10
2018-12-07T16:35:28.982Z,89.08
2018-12-07T16:37:57.921Z,88.85
2018-12-07T16:40:27.888Z,88.97
2018-12-07T16:42:56.741Z,88.93
2018-12-07T16:45:25.672Z,88.41
2018-12-07T16:47:55.254Z,88.44
2018-12-07T16:53:15.865Z,88.70
2018-12-07T16:55:45.573Z,88.50
2018-12-07T16:58:14.811Z,88.71
2018-12-07T17:00:44.673Z,88.91
2018-12-07T17:03:14.545Z,88.61
2018-12-07T17:05:43.740Z,88.33
2018-12-07T17:08:13.212Z,88.84
2018-12-07T17:10:47.221Z,89.03
2018-12-07T17:13:16.148Z,89.43
2018-12-07T17:15:45.136Z,89.64
2018-12-07T17:18:14.415Z,89.88
2018-12-07T17:20:43.672Z,90.22
2018-12-07T17:23:13.638Z,90.60
2018-12-07T17:25:49.557Z,90.96
2018-12-07T17:28:18.378Z,91.09
2018-12-07T17:30:47.922Z,91.36
2018-12-07T17:33:17.048Z,91.47
2018-12-07T17:35:46.255Z,91.60
2018-12-07T17:38:15.921Z,91.44
2018-12-07T17:40:52.205Z,91.09
2018-12-07T17:43:21.470Z,90.52
2018-12-07T17:45:51.442Z,90.39
2018-12-07T17:48:20.435Z,90.12
2018-12-07T17:50:51.184Z,89.58
2018-12-07T17:53:20.198Z,89.53
2018-12-07T17:55:52.131Z,89.40
2018-12-07T17:58:21.390Z,89.21
2018-12-07T18:00:51.304Z,89.37
2018-12-07T18:03:21.081Z,89.02
2018-12-07T18:05:50.022Z,89.38
2018-12-07T18:08:18.988Z,89.44
2018-12-07T18:10:48.809Z,89.46
2018-12-07T18:13:18.084Z,89.75
2018-12-07T18:15:47.190Z,89.77
2018-12-07T18:18:16.035Z,89.98
2018-12-07T18:20:46.526Z,89.92
2018-12-07T18:23:16.159Z,89.79
2018-12-07T18:25:45.102Z,90.08
2018-12-07T18:28:14.439Z,90.48
2018-12-07T18:30:44.024Z,90.44
2018-12-07T18:33:13.907Z,90.27
2018-12-07T18:35:45.474Z,90.47
2018-12-07T18:38:14.381Z,90.49
2018-12-07T18:40:44.371Z,90.45
2018-12-07T18:43:13.883Z,90.26
2018-12-07T18:45:44.479Z,90.57
2018-12-07T18:49:16.639Z,90.68
2018-12-07T18:51:46.362Z,90.82
2018-12-07T18:54:16.447Z,90.77
2018-12-07T18:56:46.089Z,90.87
2018-12-07T18:59:16.082Z,90.91
2018-12-07T19:01:45.985Z,91.09
2018-12-07T19:04:16.007Z,91.09
2018-12-07T19:06:45.021Z,91.13
2018-12-07T19:09:14.220Z,91.39
2018-12-07T19:11:44.150Z,91.09
2018-12-07T19:14:13.390Z,90.79
2018-12-07T19:16:43.109Z,91.00
2018-12-07T19:19:12.347Z,90.71
2018-12-07T19:23:49.297Z,90.61
2018-12-07T19:26:18.673Z,90.59
2018-12-07T19:28:47.574Z,90.73
2018-12-07T19:31:16.824Z,91.10
2018-12-07T19:33:46.454Z,90.90
2018-12-07T19:36:15.419Z,90.60
2018-12-07T19:38:44.439Z,90.97
2018-12-07T19:41:14.651Z,90.91
2018-12-07T19:43:43.587Z,90.78
2018-12-07T19:46:13.258Z,91.26
2018-12-07T19:48:42.177Z,91.25
2018-12-07T19:51:13.188Z,90.86
2018-12-07T19:53:42.285Z,91.10
2018-12-07T19:56:12.629Z,91.47
2018-12-07T19:58:41.380Z,91.38
2018-12-07T20:01:10.285Z,91.69
2018-12-07T20:03:39.946Z,92.00
2018-12-07T20:06:08.871Z,92.02
2018-12-07T20:08:37.696Z,91.98
2018-12-07T20:11:06.584Z,91.78
2018-12-07T20:13:36.585Z,91.65
2018-12-07T20:16:05.607Z,92.02
2018-12-07T20:18:34.681Z,91.83
2018-12-07T20:21:03.926Z,92.01
2018-12-07T20:23:33.817Z,91.79
2018-12-07T20:26:02.687Z,91.94
2018-12-07T20:28:37.646Z,92.12
2018-12-07T20:31:07.600Z,91.80
2018-12-07T20:33:36.721Z,92.03
2018-12-07T20:36:05.762Z,91.88
2018-12-07T20:38:35.058Z,91.50
2018-12-07T20:41:03.932Z,91.80
2018-12-07T20:43:37.639Z,91.88
2018-12-07T20:46:07.171Z,91.68
2018-12-07T20:48:36.418Z,91.56
2018-12-07T20:51:06.239Z,91.70
2018-12-07T20:53:35.345Z,91.73
2018-12-07T20:56:05.229Z,91.93
2018-12-07T20:58:37.442Z,92.04
2018-12-07T21:01:06.355Z,92.25
2018-12-07T21:09:40.237Z,92.11
2018-12-07T21:12:26.137Z,92.27
2018-12-07T21:14:56.604Z,92.15
2018-12-07T21:17:32.371Z,91.92
2018-12-07T21:20:23.597Z,91.93
2018-12-07T21:22:53.825Z,91.65
2018-12-07T21:25:22.800Z,91.73
2018-12-07T21:27:52.577Z,91.86
2018-12-07T21:30:37.594Z,92.01
2018-12-07T21:33:06.664Z,92.21
2018-12-07T21:38:36.894Z,92.46
2018-12-07T21:41:05.751Z,92.75
2018-12-07T21:43:34.559Z,92.26
2018-12-07T21:46:04.482Z,92.96
2018-12-07T21:48:33.476Z,92.72
2018-12-07T21:52:15.935Z,92.61
2018-12-07T21:54:45.722Z,92.25
2018-12-07T21:57:15.986Z,92.55
2018-12-07T21:59:46.090Z,92.95
2018-12-07T22:02:15.799Z,92.79
2018-12-07T22:04:45.786Z,92.97
2018-12-07T22:07:15.053Z,92.94
2018-12-07T22:09:44.943Z,92.90
2018-12-07T22:12:14.064Z,93.03
2018-12-07T22:14:43.553Z,92.96
2018-12-07T22:17:12.627Z,93.00
2018-12-07T22:19:41.342Z,93.04
2018-12-07T22:22:11.987Z,92.90
2018-12-07T22:24:41.953Z,92.60
2018-12-07T22:27:10.853Z,92.50
2018-12-07T22:29:40.162Z,92.30
2018-12-07T22:32:08.979Z,92.22
2018-12-07T22:34:38.067Z,92.33
2018-12-07T22:37:06.961Z,92.01
2018-12-07T22:39:35.982Z,92.03
2018-12-07T22:42:05.246Z,92.00
2018-12-07T22:44:34.228Z,91.80
2018-12-07T22:47:04.167Z,91.94
2018-12-07T22:49:33.068Z,91.94
2018-12-07T22:52:02.626Z,91.92
2018-12-07T22:54:32.483Z,92.00
2018-12-07T22:57:01.840Z,92.03
2018-12-07T22:59:31.417Z,92.27
2018-12-07T23:02:01.129Z,91.91
2018-12-07T23:04:30.842Z,91.83
2018-12-07T23:07:00.254Z,92.14
2018-12-07T23:09:29.106Z,92.00
2018-12-07T23:11:58.210Z,92.37
2018-12-07T23:14:26.902Z,91.97
2018-12-07T23:16:55.730Z,91.84
2018-12-07T23:19:24.545Z,91.65
2018-12-07T23:21:53.238Z,91.81
2018-12-07T23:24:22.675Z,91.94
2018-12-07T23:26:51.357Z,91.97
2018-12-07T23:29:22.764Z,92.26
2018-12-07T23:31:51.471Z,92.01
2018-12-07T23:34:20.267Z,91.66
2018-12-07T23:36:49.328Z,91.63
2018-12-07T23:39:18.108Z,91.77
2018-12-07T23:41:46.837Z,91.78
2018-12-07T23:44:15.662Z,91.46
2018-12-07T23:46:45.585Z,91.42
2018-12-07T23:49:14.587Z,91.57
2018-12-07T23:51:44.279Z,91.56
2018-12-07T23:54:13.868Z,91.54
2018-12-07T23:56:43.483Z,91.59
2018-12-07T23:59:12.318Z,91.51
